ニース/コート・ダジュール の空港の天気 - METARとTAF

コート・ダジュール空港(ニース) ( LFMN / NCE ) - フランス ニース
飛行場実況気象(Metar)
観測時間06/18 22:00 CEST (06/18 20:00 UTC)
風向・風速南南西 1m/s
視程10km以上
天気現象
少しの雲 雲底高度 3050m
気温24℃
湿度74%
気圧1016hPa
METARLFMN 182000Z 20001KT 9999 FEW100 24/19 Q1016 NOSIG
過去の天気等 Google飛行場航空写真 Wunderground天気予報

過去48時間のMETAR

飛行場予報(TAF)
発表時間: 6/18 22:00 CEST (6/18 20:00 UTC)
予報対象時間: 18日23時 CEST ~ 20日5時 CEST
風向・風速不定 2m/s
視程10km以上
なし
19日10時 CEST ~ 19日11時 CEST に徐々に
風向・風速東南東 4m/s
19日20時 CEST ~ 19日22時 CEST に徐々に
風向・風速不定 2m/s
TAF LFMN 182000Z 1821/2003 VRB03KT CAVOK
BECMG 1908/1909 12008KT
BECMG 1918/1920 VRB03KT